Time;durP1;ratioP1;P1;durP2;ratioP2;P2;SDS_P1;SDS_P2;PMS_P1;PMS_P2;Temp;Humidity;BMP_temperature;BMP_pressure;BME280_temperature;BME280_humidity;BME280_pressure;Samples;Min_cycle;Max_cycle;Signal;HPM_P1;HPM_P2
2023/12/11 15:03:38;;;;;;;;;;;0.90;99.90;;;;;;5100286;27;19920;-95
2023/12/11 15:06:05;;;;;;;;;;;0.90;99.90;;;;;;5104682;28;20317;-94
2023/12/11 15:08:31;;;;;;;;;;;1.00;99.90;;;;;;5071295;28;20345;-94
2023/12/11 15:10:57;;;;;;;;;;;1.10;99.90;;;;;;5071063;28;20372;-93
2023/12/11 15:13:23;;;;;;;;;;;1.20;99.90;;;;;;5073197;28;20021;-92
2023/12/11 15:15:49;;;;;;;;;;;1.30;99.90;;;;;;5073434;28;19908;-92
2023/12/11 15:18:15;;;;;;;;;;;1.40;99.90;;;;;;5071897;28;19934;-92
2023/12/11 15:20:41;;;;;;;;;;;1.50;99.90;;;;;;5061522;28;19916;-95
2023/12/11 15:23:09;;;;;;;;;;;1.60;99.90;;;;;;5050120;28;20393;-93
2023/12/11 15:25:35;;;;;;;;;;;1.70;99.90;;;;;;5050713;28;19909;-93
2023/12/11 15:28:00;;;;;;;;;;;1.70;99.90;;;;;;5050397;28;19909;-92
2023/12/11 15:30:27;;;;;;;;;;;1.80;99.90;;;;;;5051584;28;19920;-93
2023/12/11 15:32:59;;;;;;;;;;;1.90;99.90;;;;;;5053328;28;19919;-93
2023/12/11 15:35:26;;;;;;;;;;;1.90;99.90;;;;;;5051601;28;20322;-93
2023/12/11 15:37:52;;;;;;;;;;;1.90;99.90;;;;;;5051388;28;19913;-93
2023/12/11 15:40:22;;;;;;;;;;;2.00;99.90;;;;;;5052210;28;19916;-96
2023/12/11 15:42:48;;;;;;;;;;;2.00;99.90;;;;;;5054141;28;19909;-94
2023/12/11 15:47:17;;;;;;;;;;;2.00;99.90;;;;;;5047553;28;19991;-95
2023/12/11 15:49:42;;;;;;;;;;;2.00;99.90;;;;;;5054859;28;20246;-94
2023/12/11 15:52:09;;;;;;;;;;;2.10;99.90;;;;;;5042579;28;19917;-94
2023/12/11 15:54:35;;;;;;;;;;;2.10;99.90;;;;;;5045954;28;20326;-90
2023/12/11 15:57:05;;;;;;;;;;;2.10;99.90;;;;;;5045541;28;19945;-92
2023/12/11 15:59:32;;;;;;;;;;;2.10;99.90;;;;;;5040051;28;20362;-91
2023/12/11 16:01:59;;;;;;;;;;;2.10;99.90;;;;;;5039483;28;20405;-91
2023/12/11 16:04:26;;;;;;;;;;;2.20;99.90;;;;;;5035428;28;19910;-92
2023/12/11 16:06:52;;;;;;;;;;;2.20;99.90;;;;;;5062123;28;19921;-92
2023/12/11 16:09:19;;;;;;;;;;;2.20;99.90;;;;;;5046490;28;19956;-92
2023/12/11 16:11:46;;;;;;;;;;;2.20;99.90;;;;;;5051310;28;19919;-91
2023/12/11 16:14:14;;;;;;;;;;;2.30;99.90;;;;;;5050828;28;19962;-90
2023/12/11 16:16:40;;;;;;;;;;;2.20;99.90;;;;;;5036237;28;19959;-92
2023/12/11 16:19:06;;;;;;;;;;;2.20;99.90;;;;;;5054575;28;19912;-92
2023/12/11 16:21:35;;;;;;;;;;;2.30;99.90;;;;;;5047542;28;19955;-92
2023/12/11 16:24:01;;;;;;;;;;;2.20;99.90;;;;;;5035854;28;19916;-91
2023/12/11 16:26:26;;;;;;;;;;;2.20;99.90;;;;;;5047075;28;20288;-92
2023/12/11 16:28:52;;;;;;;;;;;2.30;99.90;;;;;;5049068;28;19913;-92
2023/12/11 16:31:23;;;;;;;;;;;2.30;99.90;;;;;;5053008;28;19960;-93
2023/12/11 16:33:50;;;;;;;;;;;2.30;99.90;;;;;;5031126;28;19956;-91
2023/12/11 16:36:15;;;;;;;;;;;2.30;99.90;;;;;;5030833;28;19920;-91
2023/12/11 16:38:41;;;;;;;;;;;2.30;99.90;;;;;;5014875;28;19932;-93
2023/12/11 16:41:07;;;;;;;;;;;2.30;99.90;;;;;;5032067;28;19908;-91
2023/12/11 16:43:33;;;;;;;;;;;2.30;99.90;;;;;;5035921;28;19913;-91
2023/12/11 16:45:59;;;;;;;;;;;2.30;99.90;;;;;;5038618;28;19932;-91
2023/12/11 16:48:25;;;;;;;;;;;2.30;99.90;;;;;;5044818;28;19921;-91
2023/12/11 16:50:50;;;;;;;;;;;2.30;99.90;;;;;;5044024;28;19944;-90
2023/12/11 16:53:16;;;;;;;;;;;2.30;99.90;;;;;;5034623;28;20316;-91
2023/12/11 16:55:41;;;;;;;;;;;2.30;99.90;;;;;;5030118;28;19910;-91
2023/12/11 16:58:07;;;;;;;;;;;2.30;99.90;;;;;;5019258;28;20340;-92
2023/12/11 17:00:33;;;;;;;;;;;2.30;99.90;;;;;;5020882;28;19939;-94
2023/12/11 17:02:59;;;;;;;;;;;2.30;99.90;;;;;;5029241;28;20004;-93
2023/12/11 17:05:24;;;;;;;;;;;2.30;99.90;;;;;;5032742;28;19996;-91
2023/12/11 17:07:50;;;;;;;;;;;2.30;99.90;;;;;;5025972;28;19917;-91
2023/12/11 17:10:17;;;;;;;;;;;2.40;99.90;;;;;;5028990;28;19980;-92
2023/12/11 17:12:43;;;;;;;;;;;2.30;99.90;;;;;;5020152;28;19913;-93
2023/12/11 17:15:08;;;;;;;;;;;2.30;99.90;;;;;;5016318;28;19920;-93
2023/12/11 17:17:36;;;;;;;;;;;2.30;99.90;;;;;;5027325;28;19920;-92
2023/12/11 17:20:04;;;;;;;;;;;2.30;99.90;;;;;;5016429;28;19916;-94
2023/12/11 17:22:30;;;;;;;;;;;2.30;99.90;;;;;;5037487;28;19935;-91
2023/12/11 17:24:56;;;;;;;;;;;2.40;99.90;;;;;;5035713;28;20017;-92
2023/12/11 17:27:24;;;;;;;;;;;2.40;99.90;;;;;;5048637;28;19995;-92
2023/12/11 17:29:57;;;;;;;;;;;2.40;99.90;;;;;;5056240;28;19919;-94
2023/12/11 17:32:23;;;;;;;;;;;2.40;99.90;;;;;;5046513;28;19996;-93
2023/12/11 17:35:09;;;;;;;;;;;2.40;99.90;;;;;;5030446;28;20000;-92
2023/12/11 17:37:34;;;;;;;;;;;2.40;99.90;;;;;;5046012;28;20362;-90
2023/12/11 17:40:01;;;;;;;;;;;2.40;99.90;;;;;;5034665;28;19971;-91
2023/12/11 17:42:26;;;;;;;;;;;2.40;99.90;;;;;;5031841;28;19981;-92
2023/12/11 17:44:52;;;;;;;;;;;2.40;99.90;;;;;;5030149;28;20015;-91
2023/12/11 17:47:18;;;;;;;;;;;2.40;99.90;;;;;;4996527;28;19940;-91
2023/12/11 17:49:44;;;;;;;;;;;2.40;99.90;;;;;;4994752;28;20267;-95
2023/12/11 17:52:10;;;;;;;;;;;2.40;99.90;;;;;;4995887;28;19956;-92
2023/12/11 17:54:36;;;;;;;;;;;2.40;99.90;;;;;;4995911;28;19918;-92
2023/12/11 17:57:03;;;;;;;;;;;2.50;99.90;;;;;;4997811;28;20018;-92
2023/12/11 17:59:31;;;;;;;;;;;2.40;99.90;;;;;;4999663;28;19913;-92
2023/12/11 18:01:57;;;;;;;;;;;2.50;99.90;;;;;;4997492;28;20369;-92
2023/12/11 18:04:22;;;;;;;;;;;2.50;99.90;;;;;;5000590;28;19949;-92
2023/12/11 18:06:48;;;;;;;;;;;2.50;99.90;;;;;;4997213;28;19922;-96
2023/12/11 18:09:13;;;;;;;;;;;2.50;99.90;;;;;;4992534;28;20282;-92
2023/12/11 18:11:39;;;;;;;;;;;2.50;99.90;;;;;;4999924;28;20262;-95
2023/12/11 18:14:04;;;;;;;;;;;2.40;99.90;;;;;;4988778;28;19914;-94
2023/12/11 18:16:32;;;;;;;;;;;2.50;99.90;;;;;;4998960;28;19910;-94
2023/12/11 18:18:58;;;;;;;;;;;2.40;99.90;;;;;;4999919;28;19909;-93
2023/12/11 18:21:24;;;;;;;;;;;2.40;99.90;;;;;;4999939;28;19909;-91
2023/12/11 18:23:49;;;;;;;;;;;2.50;99.90;;;;;;4998964;28;19922;-92
2023/12/11 18:26:15;;;;;;;;;;;2.40;99.90;;;;;;5024095;28;19913;-92
2023/12/11 18:28:40;;;;;;;;;;;2.40;99.90;;;;;;5008052;28;19921;-93
2023/12/11 18:31:06;;;;;;;;;;;2.40;99.90;;;;;;5001037;28;19960;-92
2023/12/11 18:33:31;;;;;;;;;;;2.40;99.90;;;;;;4998412;28;19909;-93
2023/12/11 18:35:57;;;;;;;;;;;2.40;99.90;;;;;;4993772;28;19914;-96
2023/12/11 18:38:23;;;;;;;;;;;2.40;99.90;;;;;;5010062;28;19914;-95
2023/12/11 18:40:48;;;;;;;;;;;2.40;99.90;;;;;;5007382;28;19952;-95
2023/12/11 18:43:15;;;;;;;;;;;2.40;99.90;;;;;;5018747;28;19913;-94
2023/12/11 18:45:40;;;;;;;;;;;2.40;99.90;;;;;;5015369;28;19931;-94
2023/12/11 18:48:06;;;;;;;;;;;2.40;99.90;;;;;;5037901;28;19913;-94
2023/12/11 18:50:31;;;;;;;;;;;2.40;99.90;;;;;;5038632;28;19917;-95
2023/12/11 18:52:57;;;;;;;;;;;2.50;99.90;;;;;;5028684;28;19916;-93
2023/12/11 18:55:23;;;;;;;;;;;2.50;99.90;;;;;;5031709;28;19913;-91
2023/12/11 18:57:49;;;;;;;;;;;2.50;99.90;;;;;;5028820;28;19921;-95
2023/12/11 19:00:15;;;;;;;;;;;2.50;99.90;;;;;;5034068;28;20335;-92
2023/12/11 19:02:40;;;;;;;;;;;2.50;99.90;;;;;;5034122;28;20051;-93
2023/12/11 19:05:06;;;;;;;;;;;2.40;99.90;;;;;;5034026;28;19920;-93
2023/12/11 19:07:32;;;;;;;;;;;2.50;99.90;;;;;;5046530;28;20003;-93
2023/12/11 19:09:58;;;;;;;;;;;2.50;99.90;;;;;;5051607;28;19928;-93
2023/12/11 19:12:24;;;;;;;;;;;2.50;99.90;;;;;;5038293;28;19920;-96
2023/12/11 19:14:50;;;;;;;;;;;2.50;99.90;;;;;;5036067;28;19909;-93
2023/12/11 19:17:17;;;;;;;;;;;2.50;99.90;;;;;;5035433;28;20007;-94
2023/12/11 19:19:42;;;;;;;;;;;2.50;99.90;;;;;;5044558;28;19999;-93
2023/12/11 19:22:08;;;;;;;;;;;2.50;99.90;;;;;;5038271;28;19913;-94
2023/12/11 19:50:06;;;;;;;;;;;2.50;99.90;;;;;;5549102;23;19962;-95
2023/12/11 19:52:47;;;;;;;;;;;2.50;99.90;;;;;;4996195;28;20014;-96
2023/12/11 20:02:59;;;;;;;;;;;2.50;99.90;;;;;;5666176;23;19926;-93
2023/12/11 20:05:25;;;;;;;;;;;2.50;99.90;;;;;;4962381;28;19921;-93
2023/12/11 20:07:50;;;;;;;;;;;2.50;99.90;;;;;;4958713;28;19918;-94
